Latest Weather Observations for Alice Springs Airport

IDD60801

Issued at 8:35 pm CST Tuesday 2 September 2014 (issued every 30 minutes, with the page automatically refreshed every 10 minutes)

About weather observations | Map of weather stations | Latest weather observations for NT | Other Formats
Station Details ID: 015590 Name: ALICE SPRINGS AIRPORT Lat: -23.80 Lon: 133.89 Height: 546.0 m
Data from the previous 72 hours. | See also: Recent months at Alice Springs Airport
Date/Time
CST
Temp
°C
App
Temp
°C
Dew
Point
Rel
Hum
%
Delta-T
°C
Wind Press
QNH
hPa
Press
MSL
hPa
Rain
since 9 am
mm
Dir
 
Spd
km/h
Gust
km/h
Spd
kts
Gust
kts
02/08:30pm 13.8 9.8 0.4 40 5.8 SE 11 13 6 7 1024.7 1022.9 0.0
02/08:00pm 15.0 10.6 0.4 37 6.4 SE 13 15 7 8 1024.3 1022.5 0.0
02/07:30pm 15.9 11.6 0.9 36 6.7 SE 13 17 7 9 1024.1 1022.3 0.0
02/07:00pm 16.6 12.4 1.4 36 6.9 SE 13 17 7 9 1023.6 1021.9 0.0
02/06:30pm 17.8 12.8 1.4 33 7.5 SE 17 20 9 11 1023.1 1021.3 0.0
02/06:00pm 18.8 13.8 1.5 31 8.0 SE 17 26 9 14 1023.1 1021.3 0.0
02/05:30pm 19.4 14.0 1.2 29 8.4 SE 19 28 10 15 1022.7 1020.9 0.0
02/05:00pm 19.7 14.8 1.8 30 8.4 SE 17 20 9 11 1022.7 1020.9 0.0
02/04:30pm 20.3 14.4 1.5 28 8.8 ESE 22 28 12 15 1022.6 1020.8 0.0
02/04:00pm 20.0 14.5 1.6 29 8.6 ESE 20 30 11 16 1022.7 1020.9 0.0
02/03:30pm 19.8 14.5 1.6 29 8.5 SSE 19 28 10 15 1022.9 1021.1 0.0
02/03:00pm 19.9 14.0 1.5 29 8.6 E 22 30 12 16 1022.9 1021.1 0.0
02/02:30pm 19.9 14.0 1.5 29 8.6 ESE 22 32 12 17 1023.3 1021.6 0.0
02/02:00pm 20.2 14.3 1.6 29 8.7 SE 22 33 12 18 1023.9 1022.1 0.0
02/01:30pm 19.2 13.3 1.9 31 8.1 ESE 22 35 12 19 1024.3 1022.5 0.0
02/01:00pm 18.9 13.0 1.7 31 8.0 ESE 22 35 12 19 1024.6 1022.8 0.0
02/12:30pm 18.0 12.2 2.1 34 7.4 SE 22 39 12 21 1024.9 1023.2 0.0
02/12:00pm 18.0 11.7 1.7 33 7.5 ESE 24 41 13 22 1025.5 1023.8 0.0
02/11:30am 17.1 10.5 1.9 36 7.0 ESE 26 39 14 21 1026.0 1024.2 0.0
02/11:00am 17.0 9.6 1.7 35 7.0 ESE 30 41 16 22 1026.5 1024.8 0.0
02/10:30am 16.0 9.1 2.3 39 6.3 ESE 28 37 15 20 1026.9 1025.2 0.0
02/10:00am 15.4 8.1 2.5 42 6.0 ESE 30 39 16 21 1027.1 1025.4 0.0
02/09:30am 15.1 9.0 2.7 43 5.7 ESE 24 37 13 20 1027.1 1025.4 0.0
02/09:23am 15.1 8.2 2.4 42 5.8 SE 28 46 15 25 1027.2 1025.5 0.0
02/09:00am 14.8 7.5 2.5 43 5.6 SE 30 39 16 21 1026.8 1025.1 0.0
02/08:30am 13.9 7.7 2.4 45 5.2 SE 24 35 13 19 1026.5 1024.8 0.0
02/08:00am 13.4 8.0 2.3 47 5.0 ESE 20 28 11 15 1026.0 1024.2 0.0
02/07:30am 12.3 8.9 1.9 49 4.6 ESE 9 11 5 6 1025.8 1024.0 0.0
02/07:00am 11.2 7.1 2.1 53 4.0 ESE 13 15 7 8 1025.4 1023.7 0.0
02/06:30am 11.7 7.2 1.9 51 4.3 ESE 15 19 8 10 1025.2 1023.5 0.0
02/05:30am 12.7 8.2 2.4 49 4.6 ESE 15 22 8 12 1024.8 1023.1 0.0
02/05:00am 13.0 8.1 2.0 47 4.9 SE 17 22 9 12 1024.3 1022.5 0.0
02/04:30am 13.7 7.9 2.4 46 5.1 SE 22 30 12 16 1023.8 1022.0 0.0
02/04:00am 14.4 9.1 2.9 46 5.3 SSE 20 28 11 15 1023.3 1021.6 0.0
02/03:30am 15.6 9.7 4.0 46 5.5 SSE 24 33 13 18 1022.8 1021.0 0.0
02/03:00am 16.4 11.9 6.2 51 5.1 SE 19 28 10 15 1022.7 1020.9 0.0
02/02:30am 15.6 11.8 5.9 52 4.8 SE 15 19 8 10 1022.6 1020.8 0.0
02/02:00am 15.8 11.9 5.4 50 5.1 SE 15 20 8 11 1022.5 1020.7 0.0
02/01:30am 15.6 11.9 4.6 48 5.3 SE 13 15 7 8 1022.6 1020.8 0.0
02/01:00am 17.1 12.0 3.1 39 6.6 SE 19 26 10 14 1022.3 1020.5 0.0
02/12:30am 13.7 11.6 -0.7 37 6.1 CALM 0 0 0 0 1022.3 1020.5 0.0
02/12:00am 13.5 11.1 -3.3 31 6.7 E 0 0 0 0 1022.3 1020.5 0.0
 
Date/Time
CST
Temp
°C
App
Temp
°C
Dew
Point
Rel
Hum
%
Delta-T
°C
Wind Press
QNH
hPa
Press
MSL
hPa
Rain
since 9 am
mm
Dir
 
Spd
km/h
Gust
km/h
Spd
kts
Gust
kts
01/11:30pm 14.8 11.1 -2.9 29 7.2 SSW 7 7 4 4 1022.0 1020.2 0.0
01/11:00pm 15.2 11.5 -4.1 26 7.7 ESE 6 7 3 4 1021.5 1019.8 0.0
01/10:30pm 16.2 12.5 -3.3 26 8.0 E 7 7 4 4 1021.4 1019.6 0.0
01/10:00pm 18.0 13.7 -5.2 20 9.3 NNE 9 11 5 6 1021.3 1019.5 0.0
01/09:30pm 17.5 12.8 -4.9 21 9.0 SSE 11 15 6 8 1020.8 1019.0 0.0
01/09:00pm 19.0 14.6 -6.2 17 10.0 S 9 11 5 6 1020.2 1018.4 0.0
01/08:30pm 20.1 14.9 -6.4 16 10.6 SSE 13 15 7 8 1019.6 1017.8 0.0
01/08:00pm 21.5 15.7 -9.2 12 11.8 S 15 19 8 10 1019.0 1017.2 0.0
01/07:30pm 21.7 17.6 -6.8 14 11.5 S 7 7 4 4 1018.2 1016.3 0.0
01/07:00pm 23.2 18.1 -9.4 10 12.7 S 11 11 6 6 1018.1 1016.2 0.0
01/06:30pm 25.1 19.0 -12.4 7 14.1 SSW 15 19 8 10 1017.4 1015.6 0.0
01/06:00pm 28.2 21.1 -16.8 4 16.2 SSW 19 24 10 13 1017.2 1015.4 0.0
01/05:30pm 29.5 22.9 -15.5 4 16.8 S 17 24 9 13 1016.9 1015.1 0.0
01/05:00pm 29.9 22.7 -16.3 4 17.1 SW 20 28 11 15 1016.6 1014.7 0.0
01/04:30pm 30.5 23.2 -17.1 4 17.5 S 20 30 11 16 1016.2 1014.3 0.0
01/04:00pm 30.7 25.8 -18.3 3 17.7 WSW 7 19 4 10 1015.8 1014.0 0.0
01/03:30pm 31.0 24.3 -17.4 3 17.8 SSW 17 26 9 14 1016.0 1014.1 0.0
01/03:00pm 30.8 23.0 -20.5 3 17.9 WSW 22 32 12 17 1016.1 1014.2 0.0
01/02:30pm 30.7 25.3 -14.7 4 17.4 WNW 11 26 6 14 1016.2 1014.3 0.0
01/02:00pm 30.3 24.8 -14.9 4 17.2 WSW 11 19 6 10 1016.6 1014.7 0.0
01/01:30pm 29.7 24.3 -13.3 5 16.7 W 11 17 6 9 1016.8 1015.0 0.0
01/01:00pm 29.5 23.9 -11.6 6 16.4 NW 13 22 7 12 1017.5 1015.7 0.0
01/12:30pm 29.5 23.8 -12.5 6 16.5 W 13 26 7 14 1018.1 1016.2 0.0
01/12:00pm 29.1 22.3 -11.8 6 16.2 WSW 19 26 10 14 1018.3 1016.4 0.0
01/11:30am 28.2 23.0 -16.9 4 16.2 NW 9 15 5 8 1018.7 1016.9 0.0
01/11:00am 28.0 21.8 -14.8 5 15.9 WNW 15 22 8 12 1019.2 1017.4 0.0
01/10:30am 27.2 21.0 -15.2 5 15.5 NW 15 22 8 12 1019.5 1017.7 0.0
01/10:00am 26.4 19.7 -16.6 5 15.2 N 17 22 9 12 1019.6 1017.8 0.0
01/09:30am 24.3 20.2 -8.3 11 13.1 W 6 9 3 5 1019.6 1017.8 0.0
01/09:00am 21.2 18.5 -6.1 15 11.1 CALM 0 0 0 0 1019.5 1018.7 0.0
01/08:30am 18.7 16.0 -5.9 18 9.8 CALM 0 6 0 3 1019.1 1018.3 0.0
01/08:00am 15.3 11.3 -6.1 22 8.2 W 7 9 4 5 1018.7 1017.9 0.0
01/07:30am 11.1 8.9 -1.8 40 5.2 CALM 0 0 0 0 1018.1 1017.2 0.0
01/07:00am 7.7 5.0 -5.6 38 4.7 CALM 0 9 0 5 1017.6 1016.8 0.0
01/06:30am 7.7 4.9 -6.9 35 5.0 CALM 0 0 0 0 1017.6 1016.8 0.0
01/06:00am 7.8 4.9 -7.6 32 5.2 CALM 0 0 0 0 1017.4 1016.6 0.0
01/05:30am 6.8 4.2 -4.6 44 4.1 CALM 0 0 0 0 1017.2 1016.4 0.0
01/05:00am 8.6 4.4 -7.5 31 5.5 N 7 7 4 4 1016.8 1015.9 0.0
01/04:30am 9.7 5.5 -7.6 29 6.0 WNW 7 7 4 4 1016.9 1016.0 0.0
01/04:00am 10.1 5.4 -8.8 25 6.4 WNW 9 11 5 6 1016.8 1015.9 0.0
01/03:30am 11.0 6.3 -8.9 24 6.8 NNW 9 11 5 6 1016.8 1015.9 0.0
01/03:00am 9.3 4.3 -8.0 28 5.9 W 11 13 6 7 1016.9 1016.0 0.0
01/02:30am 10.5 5.4 -9.0 24 6.6 WNW 11 13 6 7 1017.0 1016.2 0.0
01/02:00am 9.2 4.7 -7.2 30 5.7 W 9 9 5 5 1017.0 1016.2 0.0
01/01:30am 10.5 5.9 -7.4 27 6.3 WNW 9 9 5 5 1017.0 1016.2 0.0
01/01:00am 10.1 7.1 -5.1 34 5.6 WNW 2 9 1 5 1017.0 1016.2 0.0
01/12:30am 10.8 6.8 -5.5 31 6.0 WNW 7 7 4 4 1017.1 1016.3 0.0
01/12:00am 10.3 7.6 -6.0 31 5.9 CALM 0 0 0 0 1017.2 1016.4 0.0
 
Date/Time
CST
Temp
°C
App
Temp
°C
Dew
Point
Rel
Hum
%
Delta-T
°C
Wind Press
QNH
hPa
Press
MSL
hPa
Rain
since 9 am
mm
Dir
 
Spd
km/h
Gust
km/h
Spd
kts
Gust
kts
31/11:30pm 11.4 7.3 -6.5 28 6.5 N 7 9 4 5 1017.0 1016.2 0.0
31/11:00pm 11.6 8.1 -2.8 36 5.7 NNW 6 7 3 4 1017.4 1016.6 0.0
31/10:30pm 11.6 7.8 -5.7 29 6.4 NNW 6 7 3 4 1017.6 1016.8 0.0
31/10:00pm 12.2 8.3 -6.7 26 6.9 NW 6 7 3 4 1017.7 1016.9 0.0
31/09:30pm 13.8 10.3 -6.6 23 7.6 NNE 4 7 2 4 1017.9 1017.0 0.0
31/09:00pm 15.1 12.7 -3.4 28 7.5 CALM 0 0 0 0 1017.7 1016.9 0.0
31/08:30pm 16.1 12.0 -6.2 21 8.6 NE 7 9 4 5 1017.6 1016.8 0.0
31/08:00pm 17.2 13.5 -2.9 25 8.4 NE 7 7 4 4 1017.2 1016.4 0.0
31/07:30pm 20.0 16.0 -5.6 17 10.4 ENE 7 9 4 5 1016.9 1016.0 0.0
31/07:00pm 20.8 16.7 -3.1 20 10.3 E 9 9 5 5 1016.6 1015.7 0.0
31/06:30pm 22.4 18.2 -7.5 13 12.0 SE 7 9 4 5 1016.4 1015.5 0.0
31/06:00pm 25.4 20.8 -7.6 10 13.6 S 9 11 5 6 1016.2 1015.3 0.0
31/05:30pm 26.4 21.1 -11.5 7 14.7 SSE 11 17 6 9 1016.3 1015.4 0.0
31/05:00pm 26.3 22.0 -8.9 9 14.3 SSE 7 13 4 7 1016.2 1015.3 0.0
31/04:30pm 26.5 21.9 -12.8 6 14.9 SSW 7 13 4 7 1016.1 1015.2 0.0
31/04:00pm 27.3 21.2 -12.5 6 15.3 S 15 20 8 11 1016.0 1015.1 0.0
31/03:30pm 27.1 23.1 -8.0 9 14.6 SW 6 11 3 6 1016.1 1015.2 0.0
31/03:00pm 27.2 21.1 -13.0 6 15.3 S 15 26 8 14 1016.4 1015.5 0.0
31/02:30pm 26.5 21.1 -8.2 9 14.3 S 13 24 7 13 1016.7 1015.8 0.0
31/02:00pm 25.7 20.9 -10.6 8 14.2 S 9 17 5 9 1017.1 1016.3 0.0
31/01:30pm 26.9 20.2 -10.3 8 14.8 SSE 19 24 10 13 1017.6 1016.8 0.0
31/01:00pm 25.5 21.1 -10.7 8 14.1 WNW 7 15 4 8 1018.5 1017.6 0.0
31/12:30pm 25.6 20.8 -10.3 8 14.1 E 9 19 5 10 1018.9 1018.1 0.0
31/12:00pm 24.7 20.6 -6.9 12 13.1 SSW 7 13 4 7 1019.4 1018.6 0.0
31/11:30am 24.3 20.2 -7.0 12 12.9 NW 7 11 4 6 1019.7 1018.9 0.0
31/11:00am 23.8 19.6 -8.1 11 12.8 N 7 15 4 8 1020.3 1019.5 0.0
31/10:30am 23.3 18.7 -7.8 12 12.5 NNW 9 15 5 8 1020.5 1019.7 0.0
31/10:00am 22.4 17.7 -8.9 11 12.2 N 9 15 5 8 1020.8 1020.0 0.0
31/09:30am 21.1 18.5 -5.3 16 10.9 CALM 0 6 0 3 1020.8 1020.0 0.0
31/09:00am 19.3 15.3 -8.1 15 10.5 NNW 6 9 3 5 1020.7 1019.9 0.0
31/08:30am 14.7 10.8 -6.6 22 8.0 W 6 7 3 4 1020.7 1019.9 0.0
31/08:00am 11.8 7.6 -7.2 26 6.8 W 7 7 4 4 1020.6 1019.8 0.0
31/07:30am 7.0 2.6 -6.0 39 4.5 WNW 9 9 5 5 1020.3 1019.5 0.0
31/07:00am 4.3 0.3 -5.8 48 3.4 NW 7 7 4 4 1019.7 1018.9 0.0
31/06:30am 4.6 0.1 -6.6 44 3.7 WNW 9 9 5 5 1019.6 1018.8 0.0
31/06:00am 4.6 0.1 -7.0 43 3.8 WNW 9 11 5 6 1019.5 1018.7 0.0
31/05:30am 5.1 0.6 -7.0 41 4.0 NW 9 9 5 5 1019.1 1018.3 0.0
31/05:00am 5.6 1.1 -7.1 39 4.2 NW 9 11 5 6 1018.9 1018.1 0.0
31/04:30am 6.3 1.4 -7.2 37 4.5 NW 11 13 6 7 1019.1 1018.3 0.0
31/04:00am 5.2 1.2 -5.6 45 3.7 NW 7 9 4 5 1019.1 1018.3 0.0
31/03:30am 6.1 1.5 -7.5 37 4.5 WNW 9 11 5 6 1019.4 1018.6 0.0
31/03:00am 7.3 3.2 -6.3 37 4.7 NNW 7 7 4 4 1019.4 1018.6 0.0
31/02:30am 7.2 3.1 -6.5 37 4.7 NW 7 11 4 6 1019.7 1018.9 0.0
31/02:00am 8.3 3.7 -7.6 31 5.4 NW 9 9 5 5 1019.9 1019.0 0.0
31/01:30am 7.8 3.2 -8.1 31 5.3 WNW 9 11 5 6 1020.2 1019.3 0.0
31/01:00am 7.2 3.1 -6.9 36 4.8 WNW 7 11 4 6 1020.4 1019.6 0.0
31/12:30am 7.6 3.5 -7.1 34 5.0 WNW 7 7 4 4 1020.5 1019.7 0.0
31/12:00am 8.3 4.3 -5.4 37 4.9 NNW 7 7 4 4 1020.5 1019.7 0.0
 
Date/Time
CST
Temp
°C
App
Temp
°C
Dew
Point
Rel
Hum
%
Delta-T
°C
Wind Press
QNH
hPa
Press
MSL
hPa
Rain
since 9 am
mm
Dir
 
Spd
km/h
Gust
km/h
Spd
kts
Gust
kts
30/11:30pm 9.7 5.8 -6.3 32 5.7 WNW 6 6 3 3 1020.6 1019.8 0.0
30/11:00pm 9.8 5.6 -7.5 29 6.0 SW 7 7 4 4 1020.6 1019.8 0.0
30/10:30pm 10.2 6.1 -6.2 31 5.9 S 7 9 4 5 1020.7 1019.9 0.0
30/10:00pm 10.5 7.2 -4.4 35 5.6 ESE 4 6 2 3 1020.7 1019.9 0.0
30/09:30pm 13.9 9.5 -6.0 24 7.5 NE 9 11 5 6 1020.8 1020.0 0.0
30/09:00pm 13.2 8.9 -4.7 28 6.9 N 9 13 5 7 1020.8 1020.0 0.0

Other Formats:

Comma delimited format used in spreadsheet applications
http://www.bom.gov.au/fwo/IDD60801/IDD60801.94326.axf

JavaScript Object Notation format (JSON) in row-major order
http://www.bom.gov.au/fwo/IDD60801/IDD60801.94326.json